createdAt,value
2018-11-12T00:00:59.090Z,13.13
2018-11-12T00:03:28.349Z,12.20
2018-11-12T00:05:57.782Z,14.03
2018-11-12T00:08:30.763Z,9.20
2018-11-12T00:10:59.655Z,8.45
2018-11-12T00:16:13.838Z,10.85
2018-11-12T00:18:42.590Z,7.80
2018-11-12T00:21:13.771Z,8.18
2018-11-12T00:23:52.207Z,7.60
2018-11-12T00:26:39.363Z,9.05
2018-11-12T00:35:07.044Z,6.42
2018-11-12T00:37:44.541Z,8.33
2018-11-12T00:40:27.524Z,11.65
2018-11-12T00:43:01.666Z,7.30
2018-11-12T00:45:30.245Z,6.53
2018-11-12T00:47:58.936Z,5.95
2018-11-12T00:50:28.113Z,6.87
2018-11-12T00:52:56.872Z,7.85
2018-11-12T00:55:25.846Z,5.85
2018-11-12T00:58:00.715Z,7.22
2018-11-12T01:00:30.836Z,6.90
2018-11-12T01:03:12.462Z,7.75
2018-11-12T01:05:43.179Z,5.55
2018-11-12T01:08:11.748Z,8.03
2018-11-12T01:10:40.662Z,5.42
2018-11-12T01:13:10.743Z,6.47
2018-11-12T01:15:39.425Z,6.97
2018-11-12T01:18:08.041Z,7.65
2018-11-12T01:20:40.684Z,6.42
2018-11-12T01:23:10.702Z,5.70
2018-11-12T01:25:41.347Z,6.60
2018-11-12T01:28:16.386Z,7.12
2018-11-12T01:30:50.928Z,5.80
2018-11-12T01:33:21.669Z,6.00
2018-11-12T01:35:53.477Z,5.80
2018-11-12T01:38:26.884Z,6.90
2018-11-12T01:41:12.632Z,8.20
2018-11-12T01:44:07.911Z,8.20
2018-11-12T01:46:39.271Z,13.98
2018-11-12T01:49:14.021Z,6.55
2018-11-12T01:51:50.324Z,5.28
2018-11-12T01:54:20.590Z,4.83
2018-11-12T01:56:54.284Z,5.65
2018-11-12T01:59:26.496Z,5.35
2018-11-12T02:02:02.470Z,5.47
2018-11-12T02:04:31.415Z,5.78
2018-11-12T02:07:03.903Z,4.95
2018-11-12T02:09:33.787Z,5.95
2018-11-12T02:12:07.251Z,5.17
2018-11-12T02:17:21.608Z,5.87
2018-11-12T02:19:59.080Z,5.65
2018-11-12T02:25:40.219Z,5.28
2018-11-12T02:28:28.241Z,4.72
2018-11-12T02:31:15.520Z,5.85
2018-11-12T02:33:47.833Z,5.95
2018-11-12T02:36:17.813Z,5.67
2018-11-12T02:38:48.075Z,4.85
2018-11-12T02:41:20.913Z,4.80
2018-11-12T02:43:51.686Z,4.90
2018-11-12T02:46:21.136Z,5.62
2018-11-12T02:48:50.083Z,5.12
2018-11-12T02:51:21.294Z,10.32
2018-11-12T02:53:51.126Z,5.33
2018-11-12T02:56:20.120Z,9.50
2018-11-12T02:58:50.526Z,5.62
2018-11-12T03:01:22.566Z,6.00
2018-11-12T03:03:53.817Z,6.22
2018-11-12T03:06:23.527Z,6.62
2018-11-12T03:08:53.811Z,6.92
2018-11-12T03:11:27.819Z,6.00
2018-11-12T03:14:02.389Z,6.20
2018-11-12T03:16:31.086Z,6.33
2018-11-12T03:19:00.023Z,5.80
2018-11-12T03:21:30.012Z,6.20
2018-11-12T03:24:00.029Z,7.10
2018-11-12T03:26:34.908Z,6.20
2018-11-12T03:29:19.934Z,7.45
2018-11-12T03:32:07.143Z,8.18
2018-11-12T03:34:46.218Z,7.47
2018-11-12T03:44:21.483Z,9.40
2018-11-12T03:47:02.327Z,7.78
2018-11-12T03:49:35.911Z,9.00
2018-11-12T03:52:20.753Z,8.80
2018-11-12T04:15:46.860Z,9.03
2018-11-12T04:32:25.695Z,9.50
2018-11-12T04:35:13.017Z,7.55
2018-11-12T04:38:02.268Z,10.63
2018-11-12T04:43:33.139Z,7.97
2018-11-12T04:46:03.759Z,11.33
2018-11-12T04:48:42.211Z,7.62
2018-11-12T04:51:32.843Z,7.40
2018-11-12T04:54:17.765Z,11.40
2018-11-12T04:57:08.076Z,10.78
2018-11-12T04:59:47.518Z,7.45
2018-11-12T05:02:20.638Z,7.42
2018-11-12T05:08:41.085Z,6.62
2018-11-12T05:11:23.022Z,7.87
2018-11-12T05:13:52.433Z,7.10
2018-11-12T05:16:25.803Z,8.08
2018-11-12T05:18:58.324Z,10.23
2018-11-12T05:21:27.701Z,7.35
2018-11-12T05:24:06.371Z,7.70
2018-11-12T05:26:38.286Z,9.13
2018-11-12T05:29:07.618Z,10.93
2018-11-12T05:31:36.452Z,8.43
2018-11-12T05:34:10.154Z,12.03
2018-11-12T05:36:45.624Z,7.37
2018-11-12T05:39:18.286Z,8.40
2018-11-12T05:41:58.747Z,9.85
2018-11-12T05:44:29.283Z,8.90
2018-11-12T05:47:02.610Z,8.05
2018-11-12T05:49:31.177Z,6.75
2018-11-12T05:52:00.209Z,11.28
2018-11-12T05:54:29.385Z,8.48
2018-11-12T05:57:07.670Z,7.10
2018-11-12T05:59:40.233Z,10.45
2018-11-12T06:02:13.736Z,9.75
2018-11-12T06:04:48.702Z,7.95
2018-11-12T06:07:20.777Z,9.05
2018-11-12T06:09:57.731Z,9.63
2018-11-12T06:12:52.203Z,11.08
2018-11-12T06:43:30.532Z,9.28
2018-11-12T06:46:05.360Z,9.75
2018-11-12T06:48:47.603Z,10.38
2018-11-12T06:51:18.529Z,7.25
2018-11-12T06:54:02.252Z,12.75
2018-11-12T06:56:44.035Z,8.53
2018-11-12T06:59:12.402Z,7.92
2018-11-12T07:01:42.549Z,8.63
2018-11-12T07:04:10.936Z,8.28
2018-11-12T07:06:39.189Z,7.35
2018-11-12T07:09:09.726Z,8.85
2018-11-12T07:11:39.271Z,7.85
2018-11-12T07:14:07.924Z,8.88
2018-11-12T07:16:36.347Z,8.85
2018-11-12T07:19:04.727Z,7.55
2018-11-12T07:21:32.808Z,6.33
2018-11-12T07:24:01.185Z,8.63
2018-11-12T07:26:34.699Z,7.35
2018-11-12T07:29:05.980Z,6.05
2018-11-12T07:31:34.455Z,6.47
2018-11-12T07:34:02.792Z,7.85
2018-11-12T07:36:42.115Z,5.62
2018-11-12T07:45:23.400Z,5.12
2018-11-12T07:47:53.047Z,7.97
2018-11-12T07:50:22.770Z,10.80
2018-11-12T07:52:51.461Z,5.95
2018-11-12T07:55:22.577Z,4.92
2018-11-12T07:57:53.880Z,5.22
2018-11-12T08:00:35.525Z,6.80
2018-11-12T08:03:09.631Z,4.90
2018-11-12T08:05:40.660Z,7.15
2018-11-12T08:08:09.946Z,6.10
2018-11-12T08:10:38.582Z,5.47
2018-11-12T08:13:07.508Z,5.08
2018-11-12T08:15:40.669Z,18.05
2018-11-12T08:18:11.349Z,4.90
2018-11-12T08:20:48.134Z,5.62
2018-11-12T08:23:24.435Z,7.58
2018-11-12T08:25:55.559Z,14.50
2018-11-12T08:30:59.182Z,6.10
2018-11-12T08:33:43.182Z,5.25
2018-11-12T08:36:13.232Z,3.90
2018-11-12T08:38:41.712Z,4.33
2018-11-12T08:41:17.005Z,7.03
2018-11-12T08:43:56.814Z,4.25
2018-11-12T08:46:32.132Z,4.00
2018-11-12T08:55:17.482Z,7.05
2018-11-12T08:58:03.628Z,5.62
2018-11-12T09:03:36.281Z,5.72
2018-11-12T09:06:08.960Z,5.90
2018-11-12T09:11:36.956Z,5.30
2018-11-12T09:14:09.424Z,5.30
2018-11-12T09:16:38.947Z,4.85
2018-11-12T09:19:14.725Z,4.15
2018-11-12T09:21:46.853Z,5.85
2018-11-12T09:24:26.270Z,5.78
2018-11-12T09:29:44.663Z,6.08
2018-11-12T09:32:22.169Z,7.90
2018-11-12T09:35:04.642Z,7.40
2018-11-12T09:37:38.887Z,5.28
2018-11-12T09:43:27.256Z,4.65
2018-11-12T09:48:54.882Z,4.67
2018-11-12T09:51:27.740Z,4.40
2018-11-12T11:21:40.321Z,3.70
2018-11-12T11:27:33.922Z,8.25
2018-11-12T11:30:38.024Z,5.30
2018-11-12T11:33:09.862Z,6.10
2018-11-12T11:35:54.331Z,4.67
2018-11-12T11:38:39.213Z,4.50
2018-11-12T11:53:13.011Z,4.30
2018-11-12T11:55:51.669Z,6.90
2018-11-12T12:43:24.802Z,6.60
2018-11-12T12:45:56.279Z,6.58
2018-11-12T12:48:41.972Z,7.67
2018-11-12T12:51:12.887Z,9.00
2018-11-12T12:53:41.843Z,7.72
2018-11-12T12:56:11.243Z,8.85
2018-11-12T12:58:40.486Z,8.85
2018-11-12T13:01:26.723Z,8.20
2018-11-12T13:04:02.088Z,8.65
2018-11-12T13:06:42.091Z,7.90
2018-11-12T13:09:23.941Z,8.95
2018-11-12T13:11:54.457Z,8.35
2018-11-12T13:15:14.441Z,8.65
2018-11-12T13:17:54.371Z,9.60
2018-11-12T13:20:23.961Z,9.10
2018-11-12T13:22:52.208Z,14.20
2018-11-12T13:25:20.442Z,9.73
2018-11-12T13:27:49.080Z,9.98
2018-11-12T13:30:25.711Z,8.78
2018-11-12T13:32:53.944Z,9.38
2018-11-12T13:35:28.207Z,11.33
2018-11-12T13:37:56.874Z,10.98
2018-11-12T13:40:26.543Z,12.98
2018-11-12T13:42:57.205Z,11.48
2018-11-12T13:45:25.838Z,12.50
2018-11-12T13:47:54.707Z,10.93
2018-11-12T13:50:24.389Z,12.20
2018-11-12T13:52:52.993Z,9.70
2018-11-12T13:55:22.530Z,10.08
2018-11-12T13:57:51.312Z,9.88
2018-11-12T14:00:22.189Z,11.45
2018-11-12T14:02:51.616Z,10.75
2018-11-12T14:05:21.407Z,15.68
2018-11-12T14:07:50.027Z,11.75
2018-11-12T14:10:20.206Z,10.78
2018-11-12T14:12:49.094Z,14.43
2018-11-12T14:15:19.765Z,11.78
2018-11-12T14:17:49.531Z,9.40
2018-11-12T14:20:18.171Z,11.05
2018-11-12T14:22:46.961Z,13.15
2018-11-12T14:25:16.478Z,10.05
2018-11-12T14:27:45.821Z,11.28
2018-11-12T14:30:15.666Z,10.68
2018-11-12T14:32:44.145Z,10.13
2018-11-12T14:35:13.147Z,8.73
2018-11-12T14:37:42.441Z,10.40
2018-11-12T14:40:11.685Z,10.03
2018-11-12T14:42:40.015Z,10.28
2018-11-12T14:45:09.816Z,11.30
2018-11-12T14:47:38.040Z,10.20
2018-11-12T14:50:06.297Z,11.12
2018-11-12T14:52:34.769Z,12.73
2018-11-12T14:55:03.094Z,12.40
2018-11-12T14:57:31.322Z,11.68
2018-11-12T14:59:59.833Z,12.50
2018-11-12T15:02:28.559Z,12.33
2018-11-12T15:04:57.770Z,12.90
2018-11-12T15:07:26.244Z,11.43
2018-11-12T15:09:54.953Z,10.90
2018-11-12T15:12:23.313Z,13.03
2018-11-12T15:14:51.875Z,14.73
2018-11-12T15:17:20.074Z,15.00
2018-11-12T15:19:50.299Z,12.85
2018-11-12T15:22:18.646Z,13.60
2018-11-12T15:24:47.027Z,12.98
2018-11-12T15:27:16.067Z,11.35
2018-11-12T15:29:44.396Z,12.45
2018-11-12T15:32:12.658Z,15.18
2018-11-12T15:34:41.232Z,12.58
2018-11-12T15:37:10.026Z,12.33
2018-11-12T15:39:38.228Z,11.48
2018-11-12T15:42:06.619Z,11.40
2018-11-12T15:44:38.939Z,11.28
2018-11-12T15:47:07.396Z,12.03
2018-11-12T15:49:35.860Z,11.83
2018-11-12T15:52:04.262Z,12.53
2018-11-12T15:54:32.637Z,15.88
2018-11-12T15:57:01.679Z,10.90
2018-11-12T15:59:30.084Z,11.65
2018-11-12T16:02:04.226Z,11.50
2018-11-12T16:04:33.368Z,11.95
2018-11-12T16:09:51.440Z,13.28
2018-11-12T16:12:21.399Z,12.80
2018-11-12T16:14:53.569Z,13.32
2018-11-12T16:17:22.364Z,13.72
2018-11-12T16:19:50.651Z,16.25
2018-11-12T16:22:19.176Z,14.58
2018-11-12T16:24:47.497Z,16.50
2018-11-12T16:27:16.021Z,13.62
2018-11-12T16:29:48.897Z,13.32
2018-11-12T16:32:21.113Z,14.30
2018-11-12T16:34:59.973Z,13.55
2018-11-12T16:37:32.347Z,15.50
2018-11-12T16:40:04.556Z,14.55
2018-11-12T16:42:32.881Z,14.43
2018-11-12T16:45:02.107Z,16.00
2018-11-12T16:47:31.003Z,14.85
2018-11-12T16:49:59.965Z,14.70
2018-11-12T16:52:39.448Z,16.45
2018-11-12T16:55:10.952Z,22.75
2018-11-12T16:57:39.234Z,21.05
2018-11-12T17:00:11.468Z,21.33
2018-11-12T17:02:40.203Z,21.80
2018-11-12T17:05:12.215Z,21.37
2018-11-12T17:07:42.771Z,21.57
2018-11-12T17:10:30.117Z,21.35
2018-11-12T17:13:29.159Z,23.10
2018-11-12T17:22:05.936Z,24.02
2018-11-12T17:24:46.687Z,24.82
2018-11-12T17:28:13.076Z,29.65
2018-11-12T17:35:37.417Z,25.43
2018-11-12T17:38:07.178Z,29.75
2018-11-12T17:40:58.985Z,29.05
2018-11-12T17:43:36.480Z,21.30
2018-11-12T17:46:07.305Z,21.68
2018-11-12T17:48:46.293Z,21.95
2018-11-12T17:51:16.298Z,22.07
2018-11-12T17:53:54.809Z,22.25
2018-11-12T17:56:23.443Z,21.07
2018-11-12T17:58:52.281Z,17.57
2018-11-12T18:01:25.363Z,24.20
2018-11-12T18:04:25.285Z,16.93
2018-11-12T18:12:55.326Z,22.13
2018-11-12T18:15:25.028Z,27.10
2018-11-12T18:17:57.672Z,22.90
2018-11-12T18:20:30.456Z,25.48
2018-11-12T18:23:13.093Z,23.12
2018-11-12T18:25:42.436Z,20.35
2018-11-12T18:28:10.758Z,23.70
2018-11-12T18:30:40.545Z,23.85
2018-11-12T18:33:08.843Z,23.15
2018-11-12T18:35:37.177Z,25.27
2018-11-12T18:38:06.122Z,22.45
2018-11-12T18:40:34.347Z,21.85
2018-11-12T18:43:02.699Z,21.17
2018-11-12T18:45:30.981Z,24.90
2018-11-12T18:47:59.857Z,22.58
2018-11-12T18:50:29.762Z,22.42
2018-11-12T18:52:58.159Z,23.67
2018-11-12T18:55:26.501Z,25.60
2018-11-12T18:57:56.491Z,21.65
2018-11-12T19:00:25.780Z,24.60
2018-11-12T19:02:54.748Z,25.55
2018-11-12T19:05:27.484Z,23.65
2018-11-12T19:07:57.203Z,25.60
2018-11-12T19:13:17.345Z,25.35
2018-11-12T19:16:01.397Z,23.77
2018-11-12T19:18:34.856Z,26.15
2018-11-12T19:21:20.770Z,23.80
2018-11-12T19:23:50.465Z,24.75
2018-11-12T19:26:21.335Z,27.93
2018-11-12T19:28:50.361Z,27.98
2018-11-12T19:31:19.243Z,33.15
2018-11-12T19:33:47.572Z,29.77
2018-11-12T19:36:21.545Z,29.67
2018-11-12T19:38:50.306Z,29.27
2018-11-12T19:41:32.947Z,31.05
2018-11-12T19:44:04.730Z,33.65
2018-11-12T19:46:33.635Z,31.40
2018-11-12T19:49:05.289Z,34.63
2018-11-12T19:51:34.079Z,35.25
2018-11-12T19:54:05.776Z,29.18
2018-11-12T19:56:35.808Z,29.40
2018-11-12T19:59:06.136Z,30.12
2018-11-12T20:01:36.738Z,31.45
2018-11-12T20:04:13.626Z,26.37
2018-11-12T20:07:02.888Z,32.58
2018-11-12T20:09:32.083Z,28.92
2018-11-12T20:12:05.778Z,35.95
2018-11-12T20:14:38.786Z,29.65
2018-11-12T20:17:21.746Z,30.57
2018-11-12T20:20:10.975Z,32.60
2018-11-12T20:22:45.120Z,30.02
2018-11-12T20:25:18.841Z,35.60
2018-11-12T20:27:48.309Z,34.88
2018-11-12T20:30:22.453Z,33.08
2018-11-12T20:33:00.001Z,38.48
2018-11-12T20:35:40.889Z,36.60
2018-11-12T20:38:09.882Z,34.88
2018-11-12T20:40:44.240Z,34.90
2018-11-12T20:43:12.908Z,31.57
2018-11-12T20:45:43.674Z,31.62
2018-11-12T20:48:12.723Z,34.70
2018-11-12T20:50:41.876Z,38.13
2018-11-12T20:53:10.373Z,33.28
2018-11-12T20:55:39.061Z,34.23
2018-11-12T20:58:07.531Z,36.80
2018-11-12T21:00:36.831Z,34.92
2018-11-12T21:03:07.567Z,35.98
2018-11-12T21:05:37.194Z,35.90
2018-11-12T21:08:06.191Z,36.20
2018-11-12T21:10:34.688Z,34.48
2018-11-12T21:13:05.384Z,35.78
2018-11-12T21:15:43.603Z,34.43
2018-11-12T21:18:13.003Z,35.78
2018-11-12T21:23:28.439Z,38.60
2018-11-12T21:25:56.813Z,29.15
2018-11-12T21:51:44.522Z,29.48
2018-11-12T21:54:30.730Z,30.45
2018-11-12T21:57:36.821Z,29.00
2018-11-12T22:00:33.640Z,30.70
